Terminal Aerodrome Forecast
Issued by NWS Cleveland, OH

Home | Current Version | Previous Version | Text Only | Print | Product List | Glossary On
Versions: 1 2 3 4 5 6 7 8 9 10 11 12 13 14 15 16 17 18 19 20 21
000
FTUS41 KCLE 011900 AAA
TAFYNG
TAF AMD
KYNG 011930Z 0120/0218 11005KT P6SM SCT020
      TEMPO 0120/0122 BKN020
     FM020000 11002KT P6SM FEW030
     FM020600 14002KT 3SM BR FEW002
     FM020900 14002KT 1SM BR SCT002
     FM021400 16004KT 4SM HZ SCT250
     FM021500 16005KT P6SM SCT250=

USA.gov is the U.S. government's official web portal to all federal, state and local government web resources and services.